Terminal Aerodrome Forecast
Issued by NWS

Home | Current Version | Previous Version | Text Only | Print | Product List | Glossary On
Versions: 1 2 3 4 5 6 7 8 9 10 11 12 13 14 15 16 17 18 19 20 21 22 23 24 25
000
FTUS46 KLOX 301100
TAFSBP
TAF
KSBP 301133Z 3012/0112 VRB03KT P6SM SKC
     FM302000 32015G25KT P6SM SKC
     FM010400 32008KT P6SM SKC
     FM010900 VRB03KT P6SM SKC=

USA.gov is the U.S. government's official web portal to all federal, state and local government web resources and services.